Paul — V2GQ7 — position and weather

sailwx.info

Track history (hours):
 
Tides and Currents Weather Stations Pressure Air Temp Water Temp Dewpoint Dewpoint Depression Visibility Wind Speed Wind Dir Waves Ship Positions

Paul

Last reported at 2017-Sep-17 14:13 UTC. Time now 2017-Sep-22 17:20 UTC.
Position N 36°30' E 014°45'.

Length 83 m; draft 6.3 m.

Type: Cargo ship. MMSI: 304052000.

Date/timePositionNaut miles runAvg speedWind from/ knotsBaromVisibWave heightAir tempDewpointWater temp
2017-Sep-17 14:13N 36°30' E 014°45'3 9.3
2017-Sep-17 13:55N 36°29' E 014°41'4 9.0
2017-Sep-17 13:30N 36°29' E 014°37'5 8.9
2017-Sep-17 13:00N 36°30' E 014°31'4 8.6
2017-Sep-17 12:30N 36°32' E 014°26'4 9.0
2017-Sep-17 12:00N 36°33' E 014°21'11 9.3
2017-Sep-17 10:49N 36°36' E 014°08'4 9.4
2017-Sep-17 10:21N 36°37' E 014°02'36 8.0
2017-Sep-17 05:50N 36°48' E 013°19'3 8.4
2017-Sep-17 05:28N 36°49' E 013°16'7 8.3
2017-Sep-17 04:36N 36°51' E 013°07'1 8.6
2017-Sep-17 04:30N 36°51' E 013°06'6 8.6
2017-Sep-17 03:46N 36°53' E 012°58'2 8.5
2017-Sep-17 03:30N 36°53' E 012°56'17 8.7
2017-Sep-17 01:35N 36°58' E 012°36'12 8.9
2017-Sep-17 00:17N 37°02' E 012°22'17 8.2
2017-Sep-16 22:16N 37°07' E 012°02'2 8.3
2017-Sep-16 22:00N 37°07' E 011°59'26 8.6
2017-Sep-16 18:58N 37°15' E 011°28'12 8.8
2017-Sep-16 17:40N 37°19' E 011°15'57 8.9
2017-Sep-16 11:16N 37°33' E 010°05'3 9.2
2017-Sep-16 10:56N 37°33' E 010°01'4 9.2
2017-Sep-16 10:29N 37°32' E 009°56'5 9.4
2017-Sep-16 09:58N 37°31' E 009°50'7 9.5
2017-Sep-16 09:13N 37°29' E 009°41'2 9.6
2017-Sep-16 09:00N 37°29' E 009°39'5 9.6
2017-Sep-16 08:29N 37°27' E 009°33'5 9.3
2017-Sep-16 07:56N 37°26' E 009°26'4 9.5
2017-Sep-16 07:30N 37°25' E 009°21'294 9.0
2017-Sep-14 22:43N 37°01' E 003°14'2 9.1
2017-Sep-14 22:30N 37°00' E 003°11'5 9.2
2017-Sep-14 22:00N 36°59' E 003°06'5 9.2
2017-Sep-14 21:30N 36°59' E 002°60'5 9.2
2017-Sep-14 21:00N 36°58' E 002°54'5 9.4
2017-Sep-14 20:30N 36°57' E 002°48'5 9.3
2017-Sep-14 20:00N 36°57' E 002°42'5 9.2
2017-Sep-14 19:29N 36°56' E 002°37'5 9.3
2017-Sep-14 18:59N 36°55' E 002°31'15 9.1
2017-Sep-14 17:23N 36°53' E 002°13'4 8.8
2017-Sep-14 16:59N 36°53' E 002°09'5 8.7
2017-Sep-14 16:22N 36°52' E 002°02'4 8.6
2017-Sep-14 15:53N 36°51' E 001°57'3 8.5
2017-Sep-14 15:30N 36°50' E 001°53'4 8.5
2017-Sep-14 15:00N 36°50' E 001°48'4 8.5
2017-Sep-14 14:30N 36°49' E 001°42'4 8.5
2017-Sep-14 14:00N 36°48' E 001°37'4 8.5
2017-Sep-14 13:29N 36°48' E 001°32'4 8.5
2017-Sep-14 13:00N 36°47' E 001°27'4 8.6
2017-Sep-14 12:30N 36°46' E 001°22'4 8.6
2017-Sep-14 12:00N 36°46' E 001°16'4 8.5
2017-Sep-14 11:30N 36°46' E 001°11'4 8.6
2017-Sep-14 11:00N 36°46' E 001°05'4 9.1
2017-Sep-14 10:30N 36°45' E 000°60'33 9.2
2017-Sep-14 06:57N 36°39' E 000°20'5 8.7
2017-Sep-14 06:26N 36°38' E 000°14'33 9.0
2017-Sep-14 02:44N 36°33' W 000°26'2 9.0
2017-Sep-14 02:30N 36°32' W 000°29'6 8.9
2017-Sep-14 01:48N 36°31' W 000°37'3 8.9
2017-Sep-14 01:30N 36°31' W 000°40'5 8.8
2017-Sep-14 00:56N 36°30' W 000°46'4 8.8
2017-Sep-14 00:30N 36°29' W 000°51'11 9.0
2017-Sep-13 23:20N 36°27' W 001°03'3 9.5
2017-Sep-13 22:58N 36°27' W 001°08'5 9.7
2017-Sep-13 22:27N 36°26' W 001°14'8 9.8
2017-Sep-13 21:40N 36°25' W 001°23'2 9.8
2017-Sep-13 21:29N 36°25' W 001°26'42 9.2
2017-Sep-13 16:58N 36°18' W 002°17'6 8.6
2017-Sep-13 16:14N 36°17' W 002°24'2 8.5
2017-Sep-13 16:00N 36°17' W 002°27'4 8.5
2017-Sep-13 15:30N 36°16' W 002°32'125 8.9
2017-Sep-13 01:24N 35°57' W 005°05'4 8.2
2017-Sep-13 00:54N 35°56' W 005°10'3 8.1
2017-Sep-13 00:30N 35°56' W 005°14'4 7.5
2017-Sep-13 00:00N 35°55' W 005°18'1 1.7
2017-Sep-12 23:30N 35°54' W 005°18'0 0.0
2017-Sep-12 22:59N 35°54' W 005°18'0 0.0
2017-Sep-12 22:29N 35°54' W 005°18'0 0.0
2017-Sep-12 21:59N 35°54' W 005°18'0 0.0
2017-Sep-12 21:29N 35°54' W 005°18'0 0.0
2017-Sep-12 20:59N 35°54' W 005°18'0 0.0
2017-Sep-12 20:29N 35°54' W 005°18'0 0.0
2017-Sep-12 19:59N 35°54' W 005°18'0 0.0
2017-Sep-12 19:29N 35°54' W 005°18'0 0.0
2017-Sep-12 18:59N 35°54' W 005°18'0 0.0
2017-Sep-12 18:29N 35°54' W 005°18'0 0.2
2017-Sep-12 18:01N 35°54' W 005°18'1 2.2
2017-Sep-12 17:31N 35°55' W 005°18'2 3.8
2017-Sep-12 17:00N 35°56' W 005°17'2 3.3
2017-Sep-12 16:26N 35°57' W 005°15'0 0.6
2017-Sep-12 16:00N 35°57' W 005°14'1 2.7
2017-Sep-12 15:31N 35°56' W 005°16'4 8.9
2017-Sep-12 15:00N 35°56' W 005°22'4 8.8
2017-Sep-12 14:30N 35°57' W 005°27'128 8.7
2017-Sep-11 23:47N 36°17' W 008°04'3 8.4
2017-Sep-11 23:29N 36°18' W 008°07'5 8.5
2017-Sep-11 22:57N 36°19' W 008°12'20 8.8
2017-Sep-11 20:43N 36°24' W 008°36'2 8.8
2017-Sep-11 20:30N 36°24' W 008°38'4 9.0
2017-Sep-11 20:01N 36°25' W 008°43'5 9.2
2017-Sep-11 19:31N 36°26' W 008°49'5 9.0
2017-Sep-11 19:00N 36°28' W 008°54'5 9.0
2017-Sep-11 18:29N 36°29' W 009°00'5 9.0
2017-Sep-11 17:56N 36°30' W 009°06'27 8.9
2017-Sep-11 14:56N 36°46' W 009°32'4 9.6
2017-Sep-11 14:30N 36°50' W 009°34'12 9.4
2017-Sep-11 13:16N 37°02' W 009°37'30 9.7
2017-Sep-11 10:08N 37°32' W 009°45'1 9.5
2017-Sep-11 10:01N 37°33' W 009°45'6 9.5
2017-Sep-11 09:24N 37°38' W 009°47'4 9.3
2017-Sep-11 09:00N 37°42' W 009°48'6 9.2
2017-Sep-11 08:22N 37°48' W 009°50'19 8.9
2017-Sep-11 06:12N 38°06' W 009°56'22 9.2
2017-Sep-11 03:50N 38°27' W 010°02'4 9.5
2017-Sep-11 03:22N 38°32' W 010°04'510.3
2017-Sep-11 02:55N 38°36' W 010°05'610.2
2017-Sep-11 02:20N 38°42' W 010°06'3 9.7
2017-Sep-11 02:00N 38°45' W 010°06'5 9.7
2017-Sep-11 01:30N 38°50' W 010°06'5 9.5
2017-Sep-11 01:00N 38°55' W 010°06'5 9.4
2017-Sep-11 00:30N 38°60' W 010°06'5 9.9
2017-Sep-11 00:00N 39°05' W 010°07'5 9.8
2017-Sep-10 23:29N 39°10' W 010°06'5 9.9
2017-Sep-10 22:59N 39°15' W 010°07'  
Track history (hours):
 
Tides and Currents Weather Stations Pressure Air Temp Water Temp Dewpoint Dewpoint Depression Visibility Wind Speed Wind Dir Waves Ship Positions

Paul

Last reported at 2017-Sep-17 14:13 UTC. Time now 2017-Sep-22 17:20 UTC.
Position N 36°30' E 014°45'.

Length 83 m; draft 6.3 m.

Type: Cargo ship. MMSI: 304052000.

Date/timePositionNaut miles runAvg speedWind from/ knotsBaromVisibWave heightAir tempDewpointWater temp
2017-Sep-17 14:13N 36°30' E 014°45'3 9.3
2017-Sep-17 13:55N 36°29' E 014°41'4 9.0
2017-Sep-17 13:30N 36°29' E 014°37'5 8.9
2017-Sep-17 13:00N 36°30' E 014°31'4 8.6
2017-Sep-17 12:30N 36°32' E 014°26'4 9.0
2017-Sep-17 12:00N 36°33' E 014°21'11 9.3
2017-Sep-17 10:49N 36°36' E 014°08'4 9.4
2017-Sep-17 10:21N 36°37' E 014°02'36 8.0
2017-Sep-17 05:50N 36°48' E 013°19'3 8.4
2017-Sep-17 05:28N 36°49' E 013°16'7 8.3
2017-Sep-17 04:36N 36°51' E 013°07'1 8.6
2017-Sep-17 04:30N 36°51' E 013°06'6 8.6
2017-Sep-17 03:46N 36°53' E 012°58'2 8.5
2017-Sep-17 03:30N 36°53' E 012°56'17 8.7
2017-Sep-17 01:35N 36°58' E 012°36'12 8.9
2017-Sep-17 00:17N 37°02' E 012°22'17 8.2
2017-Sep-16 22:16N 37°07' E 012°02'2 8.3
2017-Sep-16 22:00N 37°07' E 011°59'26 8.6
2017-Sep-16 18:58N 37°15' E 011°28'12 8.8
2017-Sep-16 17:40N 37°19' E 011°15'57 8.9
2017-Sep-16 11:16N 37°33' E 010°05'3 9.2
2017-Sep-16 10:56N 37°33' E 010°01'4 9.2
2017-Sep-16 10:29N 37°32' E 009°56'5 9.4
2017-Sep-16 09:58N 37°31' E 009°50'7 9.5
2017-Sep-16 09:13N 37°29' E 009°41'2 9.6
2017-Sep-16 09:00N 37°29' E 009°39'5 9.6
2017-Sep-16 08:29N 37°27' E 009°33'5 9.3
2017-Sep-16 07:56N 37°26' E 009°26'4 9.5
2017-Sep-16 07:30N 37°25' E 009°21'294 9.0
2017-Sep-14 22:43N 37°01' E 003°14'2 9.1
2017-Sep-14 22:30N 37°00' E 003°11'5 9.2
2017-Sep-14 22:00N 36°59' E 003°06'5 9.2
2017-Sep-14 21:30N 36°59' E 002°60'5 9.2
2017-Sep-14 21:00N 36°58' E 002°54'5 9.4
2017-Sep-14 20:30N 36°57' E 002°48'5 9.3
2017-Sep-14 20:00N 36°57' E 002°42'5 9.2
2017-Sep-14 19:29N 36°56' E 002°37'5 9.3
2017-Sep-14 18:59N 36°55' E 002°31'15 9.1
2017-Sep-14 17:23N 36°53' E 002°13'4 8.8
2017-Sep-14 16:59N 36°53' E 002°09'5 8.7
2017-Sep-14 16:22N 36°52' E 002°02'4 8.6
2017-Sep-14 15:53N 36°51' E 001°57'3 8.5
2017-Sep-14 15:30N 36°50' E 001°53'4 8.5
2017-Sep-14 15:00N 36°50' E 001°48'4 8.5
2017-Sep-14 14:30N 36°49' E 001°42'4 8.5
2017-Sep-14 14:00N 36°48' E 001°37'4 8.5
2017-Sep-14 13:29N 36°48' E 001°32'4 8.5
2017-Sep-14 13:00N 36°47' E 001°27'4 8.6
2017-Sep-14 12:30N 36°46' E 001°22'4 8.6
2017-Sep-14 12:00N 36°46' E 001°16'4 8.5
2017-Sep-14 11:30N 36°46' E 001°11'4 8.6
2017-Sep-14 11:00N 36°46' E 001°05'4 9.1
2017-Sep-14 10:30N 36°45' E 000°60'33 9.2
2017-Sep-14 06:57N 36°39' E 000°20'5 8.7
2017-Sep-14 06:26N 36°38' E 000°14'33 9.0
2017-Sep-14 02:44N 36°33' W 000°26'2 9.0
2017-Sep-14 02:30N 36°32' W 000°29'6 8.9
2017-Sep-14 01:48N 36°31' W 000°37'3 8.9
2017-Sep-14 01:30N 36°31' W 000°40'5 8.8
2017-Sep-14 00:56N 36°30' W 000°46'4 8.8
2017-Sep-14 00:30N 36°29' W 000°51'11 9.0
2017-Sep-13 23:20N 36°27' W 001°03'3 9.5
2017-Sep-13 22:58N 36°27' W 001°08'5 9.7
2017-Sep-13 22:27N 36°26' W 001°14'8 9.8
2017-Sep-13 21:40N 36°25' W 001°23'2 9.8
2017-Sep-13 21:29N 36°25' W 001°26'42 9.2
2017-Sep-13 16:58N 36°18' W 002°17'6 8.6
2017-Sep-13 16:14N 36°17' W 002°24'2 8.5
2017-Sep-13 16:00N 36°17' W 002°27'4 8.5
2017-Sep-13 15:30N 36°16' W 002°32'125 8.9
2017-Sep-13 01:24N 35°57' W 005°05'4 8.2
2017-Sep-13 00:54N 35°56' W 005°10'3 8.1
2017-Sep-13 00:30N 35°56' W 005°14'4 7.5
2017-Sep-13 00:00N 35°55' W 005°18'1 1.7
2017-Sep-12 23:30N 35°54' W 005°18'0 0.0
2017-Sep-12 22:59N 35°54' W 005°18'0 0.0
2017-Sep-12 22:29N 35°54' W 005°18'0 0.0
2017-Sep-12 21:59N 35°54' W 005°18'0 0.0
2017-Sep-12 21:29N 35°54' W 005°18'0 0.0
2017-Sep-12 20:59N 35°54' W 005°18'0 0.0
2017-Sep-12 20:29N 35°54' W 005°18'0 0.0
2017-Sep-12 19:59N 35°54' W 005°18'0 0.0
2017-Sep-12 19:29N 35°54' W 005°18'0 0.0
2017-Sep-12 18:59N 35°54' W 005°18'0 0.0
2017-Sep-12 18:29N 35°54' W 005°18'0 0.2
2017-Sep-12 18:01N 35°54' W 005°18'1 2.2
2017-Sep-12 17:31N 35°55' W 005°18'2 3.8
2017-Sep-12 17:00N 35°56' W 005°17'2 3.3
2017-Sep-12 16:26N 35°57' W 005°15'0 0.6
2017-Sep-12 16:00N 35°57' W 005°14'1 2.7
2017-Sep-12 15:31N 35°56' W 005°16'4 8.9
2017-Sep-12 15:00N 35°56' W 005°22'4 8.8
2017-Sep-12 14:30N 35°57' W 005°27'128 8.7
2017-Sep-11 23:47N 36°17' W 008°04'3 8.4
2017-Sep-11 23:29N 36°18' W 008°07'5 8.5
2017-Sep-11 22:57N 36°19' W 008°12'20 8.8
2017-Sep-11 20:43N 36°24' W 008°36'2 8.8
2017-Sep-11 20:30N 36°24' W 008°38'4 9.0
2017-Sep-11 20:01N 36°25' W 008°43'5 9.2
2017-Sep-11 19:31N 36°26' W 008°49'5 9.0
2017-Sep-11 19:00N 36°28' W 008°54'5 9.0
2017-Sep-11 18:29N 36°29' W 009°00'5 9.0
2017-Sep-11 17:56N 36°30' W 009°06'27 8.9
2017-Sep-11 14:56N 36°46' W 009°32'4 9.6
2017-Sep-11 14:30N 36°50' W 009°34'12 9.4
2017-Sep-11 13:16N 37°02' W 009°37'30 9.7
2017-Sep-11 10:08N 37°32' W 009°45'1 9.5
2017-Sep-11 10:01N 37°33' W 009°45'6 9.5
2017-Sep-11 09:24N 37°38' W 009°47'4 9.3
2017-Sep-11 09:00N 37°42' W 009°48'6 9.2
2017-Sep-11 08:22N 37°48' W 009°50'19 8.9
2017-Sep-11 06:12N 38°06' W 009°56'22 9.2
2017-Sep-11 03:50N 38°27' W 010°02'4 9.5
2017-Sep-11 03:22N 38°32' W 010°04'510.3
2017-Sep-11 02:55N 38°36' W 010°05'610.2
2017-Sep-11 02:20N 38°42' W 010°06'3 9.7
2017-Sep-11 02:00N 38°45' W 010°06'5 9.7
2017-Sep-11 01:30N 38°50' W 010°06'5 9.5
2017-Sep-11 01:00N 38°55' W 010°06'5 9.4
2017-Sep-11 00:30N 38°60' W 010°06'5 9.9
2017-Sep-11 00:00N 39°05' W 010°07'5 9.8
2017-Sep-10 23:29N 39°10' W 010°06'5 9.9
2017-Sep-10 22:59N 39°15' W 010°07'  

Dump ship's entire track history